• Join FlightAware (Why Join?)
  • Login
  • US Flag 
05:42PM EST


 

Airport Tracker/Info


-or-


 

Live Flight TrackerFlight Track Log ✈ N53NW ✈ 23-Aug-2013 ✈ KBWI - KJAN

Flight Track Log - Related Links

Times and Time Zones

All times are in EDT time to prevent confusion due to time zone crossing. See the N53NW flight status page for this flight to view local times or setup timezone preferences in your user account.

Time Position Orientation Groundspeed Altitude Reporting Facility
EDT Latitude Longitude Course Direction KTS MPH feet Rate Location/Type
12:34PM 39.1500 -76.6333 211° Southwest 193 222 1,800  Level Potomac TRACON
12:35PM 39.1167 -76.6833 229° Southwest 257 296 4,600 3,480 Climbing Potomac TRACON
12:36PM 39.1333 -76.7500 288° West 243 280 8,500 3,600 Climbing Potomac TRACON
12:37PM 39.1667 -76.8333 297° West 240 276 11,800 3,060 Climbing Potomac TRACON
12:38PM 39.2000 -76.9167 297° West 245 282 15,000 2,400 Climbing Potomac TRACON
12:39PM 39.2167 -77.0167 282° West 255 293 17,000 1,140 Climbing Potomac TRACON
12:40PM 39.0421 -77.2765 211° Southwest  Level FlightAware Approximate
12:40PM 39.2000 -77.1167 258° West 326 375 17,200  Level Potomac TRACON
12:41PM 39.1333 -77.1833 218° Southwest 317 365 19,600 2,400 Climbing Potomac TRACON
12:42PM 39.0667 -77.2167 201° Southwest 289 333 21,800 1,740 Climbing Potomac TRACON
12:43PM 39.0000 -77.2500 201° Southwest 304 350 23,000 600 Climbing Potomac TRACON
12:44PM 38.9000 -77.3000 201° Southwest 364 419 23,000 420 Level Potomac TRACON
12:47PM 38.6828 -77.4161 203° Southwest 373 429 24,500 960 Climbing Washington Center
12:48PM 38.6047 -77.4725 209° Southwest 353 406 26,500 1,260 Climbing Washington Center
12:49PM 38.5614 -77.5725 241° Southwest 318 366 27,000 360 Climbing Washington Center
12:50PM 38.5094 -77.6903 241° Southwest 330 380 27,300 960 Climbing Washington Center
12:51PM 38.4658 -77.7978 243° Southwest 344 396 29,000 1,200 Climbing Washington Center
12:52PM 38.4322 -77.9136 250° West 349 402 29,800 1,200 Climbing Washington Center
12:53PM 38.4092 -78.0242 255° West 344 396 31,500 1,740 Climbing Washington Center
12:54PM 38.3883 -78.1319 256° West 325 374 33,300 1,620 Climbing Washington Center
12:55PM 38.3528 -78.2261 244° Southwest 311 358 34,700 1,320 Climbing Washington Center
12:56PM 38.3053 -78.3039 232° Southwest 292 336 35,900 600 Climbing Washington Center
12:57PM 38.2492 -78.3917 231° Southwest 303 349 36,000 600 Climbing Washington Center
12:58PM 38.1950 -78.4769 231° Southwest 318 366 37,200 1,260 Climbing Washington Center
12:59PM 38.1614 -78.5681 245° Southwest 308 354 38,600 1,080 Climbing Washington Center
01:00PM 38.1175 -78.6558 238° Southwest 296 341 39,400 660 Climbing Washington Center
01:01PM 38.0756 -78.7492 240° Southwest 296 341 40,000 300 Climbing Washington Center
01:02PM 38.0311 -78.8503 241° Southwest 310 357 40,000  Level Washington Center
01:03PM 37.9886 -78.9483 241° Southwest 337 388 40,000  Level Washington Center
01:04PM 37.9417 -79.0569 241° Southwest 348 400 40,000  Level Washington Center
01:05PM 37.8969 -79.1603 241° Southwest 348 400 40,000  Level Washington Center
01:06PM 37.8456 -79.2786 241° Southwest 348 400 40,000  Level Washington Center
01:07PM 37.8003 -79.3869 242° Southwest 348 400 40,000  Level Washington Center
01:08PM 37.7531 -79.4975 242° Southwest 348 400 40,000  Level Washington Center
01:09PM 37.7122 -79.5978 243° Southwest 353 406 40,000  Level Washington Center
01:10PM 37.6542 -79.7128 238° Southwest 353 406 40,000  Level Washington Center
01:11PM 37.6111 -79.8100 241° Southwest 353 406 40,000  Level Washington Center
01:12PM 37.5564 -79.9353 241° Southwest 365 420 40,000  Level Washington Center
01:14PM 37.4447 -80.1808 240° Southwest 367 422 40,000  Level Atlanta Center
01:15PM 37.3939 -80.2881 239° Southwest 367 422 40,000  Level Atlanta Center
01:16PM 37.3450 -80.3947 240° Southwest 367 422 40,000  Level Atlanta Center
01:17PM 37.2981 -80.4986 240° Southwest 367 422 40,000  Level Atlanta Center
01:18PM 37.2550 -80.5969 241° Southwest 367 422 40,000  Level Atlanta Center
01:19PM 37.2058 -80.7033 240° Southwest 367 422 40,000  Level Atlanta Center
01:20PM 37.1564 -80.8097 240° Southwest 367 422 40,000  Level Atlanta Center
01:21PM 37.1033 -80.9289 241° Southwest 367 422 40,000  Level Atlanta Center
01:22PM 37.0517 -81.0350 239° Southwest 367 422 40,000  Level Atlanta Center
01:23PM 37.0022 -81.1433 240° Southwest 367 422 40,000  Level Atlanta Center
01:24PM 36.9525 -81.2492 240° Southwest 367 422 40,000  Level Atlanta Center
01:25PM 36.9108 -81.3492 242° Southwest 367 422 40,000  Level Atlanta Center
01:26PM 36.8569 -81.4522 237° Southwest 367 422 40,000  Level Atlanta Center
01:27PM 36.8092 -81.5681 243° Southwest 367 422 40,000  Level Atlanta Center
01:28PM 36.7572 -81.6783 240° Southwest 359 413 40,000  Level Atlanta Center
01:29PM 36.7069 -81.7861 240° Southwest 359 413 40,000  Level Atlanta Center
01:30PM 36.6567 -81.8908 239° Southwest 364 419 40,000  Level Atlanta Center
01:31PM 36.6044 -82.0008 239° Southwest 369 425 40,000  Level Atlanta Center
01:32PM 36.5519 -82.1108 239° Southwest 369 425 40,000  Level Atlanta Center
01:33PM 36.5014 -82.2181 240° Southwest 363 418 40,000  Level Atlanta Center
01:34PM 36.4467 -82.3275 238° Southwest 369 425 40,000  Level Atlanta Center
01:35PM 36.3961 -82.4369 240° Southwest 374 430 40,000  Level Atlanta Center
01:36PM 36.3411 -82.5489 239° Southwest 374 430 40,000  Level Atlanta Center
01:37PM 36.2964 -82.6450 240° Southwest 374 430 40,000  Level Atlanta Center
01:38PM 36.2433 -82.7567 240° Southwest 374 430 40,000  Level Atlanta Center
01:39PM 36.1903 -82.8631 238° Southwest 374 430 40,000  Level Atlanta Center
01:40PM 36.1392 -82.9717 240° Southwest 374 430 40,000  Level Atlanta Center
01:41PM 36.0858 -83.0803 239° Southwest 374 430 40,000  Level Atlanta Center
01:42PM 36.0325 -83.1861 238° Southwest 369 425 40,000  Level Atlanta Center
01:43PM 35.9831 -83.2972 241° Southwest 364 419 40,000  Level Atlanta Center
01:44PM 35.9294 -83.4028 238° Southwest 364 419 40,000  Level Atlanta Center
01:45PM 35.8756 -83.5108 238° Southwest 369 425 40,000  Level Atlanta Center
01:46PM 35.8239 -83.6161 239° Southwest 369 425 40,000  Level Atlanta Center
01:47PM 35.7681 -83.7239 237° Southwest 369 425 40,000  Level Atlanta Center
01:48PM 35.7139 -83.8317 238° Southwest 369 425 40,000  Level Atlanta Center
01:49PM 35.6597 -83.9417 239° Southwest 369 425 40,000  Level Atlanta Center
01:50PM 35.6078 -84.0489 239° Southwest 369 425 40,000  Level Atlanta Center
01:51PM 35.5533 -84.1561 238° Southwest 369 425 40,000  Level Atlanta Center
01:52PM 35.4969 -84.2658 238° Southwest 369 425 40,000  Level Atlanta Center
01:53PM 35.4425 -84.3703 237° Southwest 369 425 40,000  Level Atlanta Center
01:54PM 35.3878 -84.4794 238° Southwest 369 425 40,000  Level Atlanta Center
01:55PM 35.3353 -84.5861 239° Southwest 374 430 40,000  Level Atlanta Center
01:56PM 35.2806 -84.6953 238° Southwest 374 430 40,000  Level Atlanta Center
01:57PM 35.2236 -84.8039 237° Southwest 379 436 40,000  Level Atlanta Center
01:58PM 35.1686 -84.9128 238° Southwest 384 442 40,000  Level Atlanta Center
01:59PM 35.1136 -85.0189 238° Southwest 384 442 40,000  Level Atlanta Center
02:00PM 35.0583 -85.1272 238° Southwest 384 442 40,000  Level Atlanta Center
02:01PM 34.9989 -85.2456 239° Southwest 384 442 40,000  Level Atlanta Center
02:02PM 34.9414 -85.3539 237° Southwest 384 442 40,000  Level Atlanta Center
02:03PM 34.8756 -85.4567 232° Southwest 384 442 40,000  Level Atlanta Center
02:04PM 34.8056 -85.5542 229° Southwest 384 442 40,000  Level Atlanta Center
02:05PM 34.7375 -85.6514 230° Southwest 389 448 40,000  Level Atlanta Center
02:06PM 34.6672 -85.7486 229° Southwest 389 448 40,000  Level Atlanta Center
02:07PM 34.5992 -85.8381 227° Southwest 389 448 40,000  Level Atlanta Center
02:08PM 34.5289 -85.9375 229° Southwest 382 440 40,000  Level Atlanta Center
02:09PM 34.4606 -86.0317 229° Southwest 382 440 40,000  Level Atlanta Center
02:10PM 34.3903 -86.1256 228° Southwest 382 440 40,000  Level Atlanta Center
02:11PM 34.3197 -86.2219 228° Southwest 382 440 40,000  Level Atlanta Center
02:12PM 34.2489 -86.3206 229° Southwest 382 440 40,000  Level Atlanta Center
02:13PM 34.1783 -86.4167 228° Southwest 382 440 40,000 -60 Level Atlanta Center
02:14PM 34.1075 -86.5125 228° Southwest 387 445 39,900 -600 Descending Atlanta Center
02:15PM 34.0344 -86.6106 228° Southwest 387 445 38,800 -1,260 Descending Atlanta Center
02:16PM 33.9636 -86.7061 228° Southwest 387 445 37,400 -1,500 Descending Atlanta Center
02:17PM 33.8947 -86.8042 230° Southwest 387 445 35,900 -1,500 Descending Atlanta Center
02:18PM 33.8194 -86.9017 227° Southwest 387 445 34,400 -960 Descending Atlanta Center
02:19PM 33.7481 -87.0017 229° Southwest 392 451 34,000 -240 Descending Atlanta Center
02:20PM 33.6833 -87.0894 228° Southwest 392 451 34,000  Level Atlanta Center
02:21PM 33.6100 -87.1867 228° Southwest 397 457 34,000 -540 Level Atlanta Center
02:23PM 33.4631 -87.3842 228° Southwest 413 475 32,500 -1,080 Descending Memphis Center
02:24PM 33.3861 -87.4861 228° Southwest 413 475 31,000 -1,260 Descending Memphis Center
02:25PM 33.3092 -87.5906 229° Southwest 408 470 30,000 -540 Descending Memphis Center
02:26PM 33.2319 -87.6925 228° Southwest 414 476 30,000  Level Memphis Center
02:27PM 33.1547 -87.7939 228° Southwest 420 483 30,000  Level Memphis Center
02:28PM 33.0756 -87.8956 227° Southwest 420 483 30,000  Level Memphis Center
02:29PM 32.9981 -88.0017 229° Southwest 420 483 30,000 -120 Level Memphis Center
02:30PM 32.9289 -88.0925 228° Southwest 420 483 29,800 -900 Descending Memphis Center
02:31PM 32.8494 -88.1986 228° Southwest 425 489 28,200 -1,680 Descending Memphis Center
02:32PM 32.7739 -88.2967 228° Southwest 420 483 26,500 -1,680 Descending Memphis Center
02:33PM 32.6981 -88.3947 227° Southwest 420 483 24,900 -1,620 Descending Memphis Center
02:34PM 32.6244 -88.4900 227° Southwest 413 475 23,300 -1,560 Descending Memphis Center
02:35PM 32.5506 -88.5853 227° Southwest 402 463 21,800 -1,560 Descending Memphis Center
02:36PM 32.4769 -88.6803 227° Southwest 396 456 20,200 -1,680 Descending Memphis Center
02:37PM 32.4072 -88.7725 228° Southwest 390 449 18,500 -1,560 Descending Memphis Center
02:38PM 32.3728 -88.8767 249° West 358 412 17,100 -1,500 Descending Memphis Center
02:39PM 32.3681 -88.9922 267° West 350 403 15,500 -1,620 Descending Memphis Center
02:40PM 32.3650 -89.1056 268° West 347 399 13,900 -1,680 Descending Memphis Center
02:41PM 32.3597 -89.2161 267° West 352 405 12,200 -1,500 Descending Memphis Center
02:42PM 32.3522 -89.3219 265° West 340 391 11,000 -600 Descending Memphis Center
02:43PM 32.3447 -89.4228 265° West 328 377 11,000 -480 Level Memphis Center
02:44PM 32.3289 -89.5214 259° West 321 369 10,100 -1,740 Descending Memphis Center
02:45PM 32.3169 -89.6125 261° West 303 349 7,600 -2,700 Descending Memphis Center
02:46PM 32.3047 -89.7058 261° West 293 337 4,700 -2,220 Descending Memphis Center
02:47PM 32.3053 -89.7944 270° West 285 328 3,200 -900 Descending Memphis Center
02:48PM 32.3097 -89.8831 273° West 275 316 2,900 -540 Descending Memphis Center
02:49PM 32.3017 -89.9617 263° West 264 304 2,200 -600 Descending Memphis Center
02:50PM 32.2831 -90.0231 250° West 235 270 1,700 -600 Descending Memphis Center
02:51PM 32.2811 -90.0600 266° West 190 219 1,000 -600 Descending Memphis Center
02:52PM 32.2939 -90.0894 297° West 116 133 600 -420 Descending Memphis Center